createdAt,value
2023-03-26T00:00:05.910Z,99974.56
2023-03-26T00:02:34.108Z,99984.88
2023-03-26T00:05:05.997Z,99982.31
2023-03-26T00:07:34.146Z,99986.59
2023-03-26T00:10:03.750Z,99972.91
2023-03-26T00:12:31.862Z,99976.38
2023-03-26T00:14:59.908Z,99975.56
2023-03-26T00:17:29.168Z,99982.47
2023-03-26T00:19:57.329Z,99978.19
2023-03-26T00:22:25.628Z,99978.19
2023-03-26T00:24:53.695Z,99977.34
2023-03-26T00:27:23.047Z,99981.63
2023-03-26T00:29:51.050Z,99985.09
2023-03-26T00:32:19.088Z,99985.91
2023-03-26T00:34:47.435Z,99987.69
2023-03-26T00:37:15.860Z,99985.97
2023-03-26T00:39:49.205Z,99989.38
2023-03-26T00:42:17.378Z,99991.94
2023-03-26T00:44:46.765Z,99993.69
2023-03-26T00:47:15.082Z,99991.13
2023-03-26T00:49:46.923Z,99993.75
2023-03-26T00:52:14.993Z,100000.59
2023-03-26T00:54:43.428Z,99987.75
2023-03-26T00:57:16.373Z,99991.22
2023-03-26T00:59:53.484Z,99985.25
2023-03-26T01:02:21.687Z,99995.63
2023-03-26T01:04:57.400Z,99990.75
2023-03-26T01:07:29.112Z,99985.84
2023-03-26T01:10:01.205Z,99985.13
2023-03-26T01:12:33.044Z,99991.09
2023-03-26T01:15:04.637Z,99988.53
2023-03-26T01:17:34.371Z,99993.72
2023-03-26T01:20:13.292Z,99998.06
2023-03-26T01:22:45.785Z,99996.44
2023-03-26T01:25:15.288Z,99998.97
2023-03-26T01:27:48.111Z,99999.78
2023-03-26T01:30:25.433Z,100006.56
2023-03-26T01:33:02.502Z,99999.53
2023-03-26T01:35:47.000Z,100016.56
2023-03-26T01:38:29.200Z,100008.78
2023-03-26T01:41:05.797Z,100003.56
2023-03-26T01:43:40.797Z,100012.94
2023-03-26T01:46:12.641Z,100015.50
2023-03-26T01:48:43.337Z,100018.06
2023-03-26T01:51:13.204Z,100022.34
2023-03-26T01:53:45.175Z,100013.78
2023-03-26T01:56:20.604Z,100018.03
2023-03-26T01:59:02.991Z,100013.72
2023-03-26T02:01:37.588Z,100021.44
2023-03-26T02:04:14.196Z,100017.09
2023-03-26T02:06:47.427Z,100023.00
2023-03-26T02:09:22.459Z,100021.09
2023-03-26T02:11:52.703Z,100020.16
2023-03-26T02:14:21.828Z,100021.75
2023-03-26T02:16:51.553Z,100030.31
2023-03-26T02:19:22.063Z,100024.22
2023-03-26T02:21:51.603Z,100029.19
2023-03-26T02:24:20.588Z,100024.81
2023-03-26T02:26:50.091Z,100032.31
2023-03-26T02:29:20.643Z,100029.66
2023-03-26T02:31:49.685Z,100042.44
2023-03-26T02:34:17.904Z,100046.66
2023-03-26T02:36:46.026Z,100045.78
2023-03-26T02:39:14.441Z,100047.50
2023-03-26T02:41:42.713Z,100059.47
2023-03-26T02:44:10.782Z,100064.59
2023-03-26T02:46:40.280Z,100066.53
2023-03-26T02:49:08.673Z,100065.94
2023-03-26T02:51:37.642Z,100065.28
2023-03-26T02:54:07.223Z,100065.34
2023-03-26T02:56:35.779Z,100069.56
2023-03-26T02:59:03.914Z,100071.25
2023-03-26T03:01:35.035Z,100070.41
2023-03-26T03:04:05.291Z,100080.00
2023-03-26T03:06:33.313Z,100084.50
2023-03-26T03:09:02.815Z,100084.78
2023-03-26T03:11:30.872Z,100076.38
2023-03-26T03:13:58.899Z,100086.78
2023-03-26T03:16:27.228Z,100085.19
2023-03-26T03:18:57.897Z,100096.44
2023-03-26T03:21:29.184Z,100088.00
2023-03-26T03:24:00.162Z,100089.75
2023-03-26T03:26:29.960Z,100099.28
2023-03-26T03:29:00.502Z,100100.22
2023-03-26T03:31:28.625Z,100100.28
2023-03-26T03:33:57.225Z,100102.03
2023-03-26T03:36:27.817Z,100103.84
2023-03-26T03:39:02.389Z,100106.50
2023-03-26T03:41:30.820Z,100103.13
2023-03-26T03:43:59.937Z,100106.59
2023-03-26T03:46:28.125Z,100112.66
2023-03-26T03:48:56.597Z,100112.72
2023-03-26T03:51:25.980Z,100113.56
2023-03-26T03:53:55.977Z,100117.03
2023-03-26T03:56:26.237Z,100115.31
2023-03-26T03:58:54.292Z,100120.41
2023-03-26T04:01:23.633Z,100121.19
2023-03-26T04:03:54.138Z,100121.03
2023-03-26T04:06:22.196Z,100127.78
2023-03-26T04:08:50.203Z,100138.75
2023-03-26T04:11:18.351Z,100132.69
2023-03-26T04:13:47.731Z,100131.78
2023-03-26T04:16:17.579Z,100142.94
2023-03-26T04:18:47.163Z,100138.72
2023-03-26T04:21:16.016Z,100140.47
2023-03-26T04:23:47.529Z,100148.34
2023-03-26T04:26:20.154Z,100152.75
2023-03-26T04:28:54.952Z,100157.06
2023-03-26T04:31:29.270Z,100157.06
2023-03-26T04:34:01.650Z,100160.50
2023-03-26T04:36:32.263Z,100163.03
2023-03-26T04:39:04.981Z,100162.13
2023-03-26T04:41:33.357Z,100169.00
2023-03-26T04:44:05.633Z,100174.97
2023-03-26T04:46:35.125Z,100186.16
2023-03-26T04:49:04.420Z,100188.72
2023-03-26T04:51:39.575Z,100199.91
2023-03-26T04:54:08.478Z,100193.84
2023-03-26T04:56:46.693Z,100205.75
2023-03-26T04:59:27.371Z,100201.38
2023-03-26T05:01:55.421Z,100210.75
2023-03-26T05:04:23.546Z,100215.84
2023-03-26T05:06:52.089Z,100226.06
2023-03-26T05:09:20.793Z,100225.09
2023-03-26T05:11:53.109Z,100234.50
2023-03-26T05:14:22.507Z,100238.69
2023-03-26T05:16:53.372Z,100245.50
2023-03-26T05:19:21.458Z,100247.16
2023-03-26T05:21:49.671Z,100250.53
2023-03-26T05:24:19.732Z,100253.81
2023-03-26T05:26:47.770Z,100267.41
2023-03-26T05:29:18.382Z,100273.34
2023-03-26T05:31:49.132Z,100281.84
2023-03-26T05:34:17.410Z,100281.78
2023-03-26T05:36:45.540Z,100288.59
2023-03-26T05:39:14.293Z,100295.41
2023-03-26T05:41:46.921Z,100302.09
2023-03-26T05:44:14.898Z,100307.09
2023-03-26T05:46:42.888Z,100314.84
2023-03-26T05:49:12.290Z,100325.19
2023-03-26T05:51:40.534Z,100321.91
2023-03-26T05:54:08.589Z,100329.59
2023-03-26T05:56:39.566Z,100342.25
2023-03-26T05:59:08.069Z,100351.44
2023-03-26T06:01:36.445Z,100351.28
2023-03-26T06:04:06.943Z,100358.00
2023-03-26T06:06:36.562Z,100363.25
2023-03-26T06:09:05.184Z,100371.03
2023-03-26T06:11:33.269Z,100370.13
2023-03-26T06:14:01.578Z,100382.81
2023-03-26T06:16:29.628Z,100388.78
2023-03-26T06:18:58.454Z,100394.13
2023-03-26T06:21:26.980Z,100401.22
2023-03-26T06:23:59.608Z,100413.38
2023-03-26T06:38:47.709Z,100450.25
2023-03-26T07:48:33.216Z,100630.50
2023-03-26T09:47:16.561Z,100939.25
2023-03-26T09:50:07.151Z,100949.91
2023-03-26T09:52:57.272Z,100953.25
2023-03-26T09:56:05.171Z,100969.97
2023-03-26T11:52:24.576Z,101245.19
2023-03-26T11:55:19.902Z,101245.25
2023-03-26T11:58:18.013Z,101250.88
2023-03-26T12:01:14.112Z,101257.09
2023-03-26T12:06:55.097Z,101273.06
2023-03-26T12:16:16.700Z,101309.63
2023-03-26T12:19:19.649Z,101318.25
2023-03-26T12:27:42.515Z,101341.81
2023-03-26T12:30:28.256Z,101344.69
2023-03-26T12:33:14.330Z,101350.19
2023-03-26T12:35:44.792Z,101354.72
2023-03-26T12:43:53.486Z,101359.44
2023-03-26T12:44:51.665Z,101367.63
2023-03-26T12:48:00.709Z,101378.25
2023-03-26T12:50:56.398Z,101388.06
2023-03-26T12:53:59.962Z,101388.28
2023-03-26T13:00:00.900Z,101407.19
2023-03-26T13:02:37.755Z,101425.31
2023-03-26T13:05:19.763Z,101425.84
2023-03-26T13:07:58.657Z,101420.72
2023-03-26T13:10:31.710Z,101419.75
2023-03-26T13:13:08.739Z,101422.50
2023-03-26T13:15:38.850Z,101424.44
2023-03-26T13:18:15.079Z,101433.31
2023-03-26T13:20:50.635Z,101439.22
2023-03-26T13:23:24.582Z,101442.56
2023-03-26T13:25:56.786Z,101440.00
2023-03-26T13:28:31.013Z,101435.09
2023-03-26T13:31:04.943Z,101444.25
2023-03-26T13:33:40.275Z,101447.63
2023-03-26T13:36:23.333Z,101449.06
2023-03-26T13:39:07.941Z,101448.28
2023-03-26T13:41:45.592Z,101453.69
2023-03-26T13:44:17.374Z,101460.63
2023-03-26T13:46:47.406Z,101470.25
2023-03-26T13:49:17.073Z,101474.03
2023-03-26T13:51:46.702Z,101475.91
2023-03-26T13:54:23.084Z,101480.13
2023-03-26T13:56:53.880Z,101489.97
2023-03-26T13:59:24.224Z,101487.69
2023-03-26T14:01:55.208Z,101485.69
2023-03-26T14:04:25.051Z,101492.38
2023-03-26T14:06:57.670Z,101500.41
2023-03-26T14:09:32.161Z,101499.81
2023-03-26T14:12:21.101Z,101507.28
2023-03-26T14:14:54.590Z,101516.31
2023-03-26T14:17:31.818Z,101514.25
2023-03-26T14:20:11.781Z,101515.69
2023-03-26T14:22:47.555Z,101517.44
2023-03-26T14:25:23.676Z,101514.72
2023-03-26T14:28:12.716Z,101515.81
2023-03-26T14:30:58.503Z,101511.41
2023-03-26T14:33:44.363Z,101512.94
2023-03-26T14:36:16.134Z,101515.56
2023-03-26T14:38:59.258Z,101522.50
2023-03-26T14:41:31.292Z,101524.88
2023-03-26T14:44:18.171Z,101534.50
2023-03-26T14:47:04.677Z,101539.38
2023-03-26T14:49:56.778Z,101548.97
2023-03-26T14:52:29.885Z,101559.66
2023-03-26T14:54:59.954Z,101561.81
2023-03-26T14:57:39.857Z,101570.34
2023-03-26T15:00:33.763Z,101568.53
2023-03-26T15:03:21.616Z,101574.69
2023-03-26T15:06:00.245Z,101583.72
2023-03-26T15:08:46.007Z,101579.94
2023-03-26T15:11:24.843Z,101595.78
2023-03-26T15:15:05.698Z,101599.22
2023-03-26T15:18:11.436Z,101607.34
2023-03-26T15:21:20.552Z,101623.16
2023-03-26T15:24:11.288Z,101614.19
2023-03-26T15:51:10.066Z,101648.34
2023-03-26T15:53:53.484Z,101656.06
2023-03-26T15:56:39.940Z,101653.25
2023-03-26T15:59:41.973Z,101654.91
2023-03-26T16:02:43.862Z,101663.50
2023-03-26T16:06:07.637Z,101663.94
2023-03-26T16:08:46.969Z,101657.69
2023-03-26T16:11:16.272Z,101673.03
2023-03-26T16:13:46.358Z,101665.75
2023-03-26T16:16:47.123Z,101676.41
2023-03-26T16:19:36.299Z,101686.69
2023-03-26T16:22:06.169Z,101695.16
2023-03-26T16:24:35.321Z,101697.66
2023-03-26T16:27:25.949Z,101701.59
2023-03-26T16:30:20.157Z,101715.94
2023-03-26T16:32:49.966Z,101707.63
2023-03-26T16:35:37.201Z,101715.09
2023-03-26T16:38:10.766Z,101718.31
2023-03-26T16:40:51.174Z,101724.91
2023-03-26T16:43:34.102Z,101734.38
2023-03-26T16:46:05.385Z,101738.38
2023-03-26T16:48:36.629Z,101743.53
2023-03-26T16:51:08.852Z,101747.00
2023-03-26T16:53:44.153Z,101753.03
2023-03-26T16:56:17.981Z,101757.34
2023-03-26T16:58:54.271Z,101763.38
2023-03-26T17:01:27.607Z,101771.91
2023-03-26T17:03:57.075Z,101768.41
2023-03-26T17:06:32.034Z,101771.00
2023-03-26T17:09:07.527Z,101777.13
2023-03-26T17:11:48.386Z,101787.28
2023-03-26T17:14:26.860Z,101789.66
2023-03-26T17:17:08.088Z,101803.16
2023-03-26T17:19:40.888Z,101798.63
2023-03-26T17:22:12.979Z,101818.13
2023-03-26T17:24:45.746Z,101823.91
2023-03-26T17:27:24.039Z,101823.66
2023-03-26T17:30:00.499Z,101841.81
2023-03-26T17:32:43.518Z,101850.22
2023-03-26T17:35:13.918Z,101855.22
2023-03-26T17:37:46.049Z,101860.19
2023-03-26T17:40:38.351Z,101856.81
2023-03-26T17:43:11.224Z,101864.50
2023-03-26T17:45:40.457Z,101864.44
2023-03-26T17:48:11.628Z,101860.09
2023-03-26T17:50:44.522Z,101860.19
2023-03-26T17:53:18.290Z,101867.03
2023-03-26T17:55:46.769Z,101865.72
2023-03-26T17:58:35.535Z,101864.84
2023-03-26T18:01:14.658Z,101871.88
2023-03-26T18:03:46.587Z,101871.06
2023-03-26T18:06:15.874Z,101876.97
2023-03-26T18:08:51.226Z,101889.59
2023-03-26T18:11:50.973Z,101894.53
2023-03-26T18:14:42.476Z,101896.06
2023-03-26T18:17:12.905Z,101898.50
2023-03-26T18:19:48.740Z,101901.00
2023-03-26T18:22:20.089Z,101901.81
2023-03-26T18:24:48.967Z,101901.81
2023-03-26T18:27:17.868Z,101893.81
2023-03-26T18:29:47.673Z,101896.09
2023-03-26T18:32:31.056Z,101894.28
2023-03-26T18:34:59.778Z,101901.91
2023-03-26T18:37:29.550Z,101905.00
2023-03-26T18:39:59.085Z,101904.78
2023-03-26T18:42:28.285Z,101913.97
2023-03-26T18:44:59.855Z,101917.19
2023-03-26T18:47:38.636Z,101917.81
2023-03-26T18:50:07.350Z,101928.66
2023-03-26T18:52:35.404Z,101937.84
2023-03-26T18:55:04.388Z,101945.28
2023-03-26T18:57:32.984Z,101947.50
2023-03-26T19:00:10.960Z,101947.03
2023-03-26T19:02:40.594Z,101954.19
2023-03-26T19:05:11.257Z,101962.25
2023-03-26T19:07:39.238Z,101961.53
2023-03-26T19:10:08.787Z,101965.25
2023-03-26T19:12:37.671Z,101968.06
2023-03-26T19:15:07.878Z,101979.50
2023-03-26T19:17:39.705Z,101979.94
2023-03-26T19:20:15.025Z,101982.16
2023-03-26T19:22:44.753Z,101986.84
2023-03-26T19:25:22.159Z,101982.13
2023-03-26T19:27:50.723Z,101986.81
2023-03-26T19:30:28.480Z,101989.88
2023-03-26T19:33:12.233Z,101997.94
2023-03-26T19:35:44.585Z,102003.56
2023-03-26T19:38:26.153Z,102009.25
2023-03-26T19:40:55.908Z,102008.22
2023-03-26T19:43:24.648Z,102010.63
2023-03-26T19:45:59.606Z,102015.44
2023-03-26T19:48:46.219Z,102022.09
2023-03-26T19:51:21.625Z,102020.09
2023-03-26T19:53:51.259Z,102030.97
2023-03-26T19:56:20.976Z,102030.75
2023-03-26T19:58:50.406Z,102039.09
2023-03-26T20:01:21.441Z,102033.63
2023-03-26T20:03:52.943Z,102029.00
2023-03-26T20:06:30.710Z,102033.88
2023-03-26T20:09:02.281Z,102039.53
2023-03-26T20:11:33.745Z,102039.28
2023-03-26T20:14:02.456Z,102045.22
2023-03-26T20:16:31.924Z,102035.56
2023-03-26T20:19:04.852Z,102046.41
2023-03-26T20:21:38.176Z,102050.34
2023-03-26T20:24:17.851Z,102056.84
2023-03-26T20:26:46.327Z,102062.56
2023-03-26T20:29:14.880Z,102059.69
2023-03-26T20:31:43.423Z,102073.03
2023-03-26T20:34:15.743Z,102067.63
2023-03-26T20:36:45.650Z,102069.88
2023-03-26T20:39:13.944Z,102063.50
2023-03-26T20:41:45.033Z,102071.72
2023-03-26T20:44:15.734Z,102074.00
2023-03-26T20:46:44.230Z,102071.97
2023-03-26T20:49:12.527Z,102078.44
2023-03-26T20:51:42.298Z,102071.28
2023-03-26T20:54:14.951Z,102071.88
2023-03-26T20:56:43.272Z,102080.25
2023-03-26T20:59:11.971Z,102080.19
2023-03-26T21:01:39.942Z,102077.44
2023-03-26T21:04:07.966Z,102083.97
2023-03-26T21:06:35.914Z,102085.38
2023-03-26T21:09:04.193Z,102088.53
2023-03-26T21:11:41.077Z,102094.38
2023-03-26T21:14:10.946Z,102098.41
2023-03-26T21:16:39.719Z,102102.56
2023-03-26T21:19:07.899Z,102105.63
2023-03-26T21:21:47.672Z,102114.78
2023-03-26T21:24:23.995Z,102115.50
2023-03-26T21:26:58.073Z,102117.06
2023-03-26T21:29:26.365Z,102118.56
2023-03-26T21:31:55.396Z,102125.94
2023-03-26T21:34:24.159Z,102141.03
2023-03-26T21:36:52.887Z,102142.50
2023-03-26T21:39:21.192Z,102138.88
2023-03-26T21:42:04.951Z,102143.78
2023-03-26T21:44:36.056Z,102153.06
2023-03-26T21:47:04.624Z,102155.41
2023-03-26T21:49:33.954Z,102162.88
2023-03-26T21:52:02.573Z,102158.59
2023-03-26T21:54:31.379Z,102158.38
2023-03-26T21:57:04.560Z,102161.66
2023-03-26T21:59:36.411Z,102162.22
2023-03-26T22:02:08.468Z,102167.16
2023-03-26T22:04:37.964Z,102163.41
2023-03-26T22:07:11.402Z,102168.44
2023-03-26T22:09:39.861Z,102169.00
2023-03-26T22:12:07.881Z,102169.63
2023-03-26T22:14:36.210Z,102165.28
2023-03-26T22:17:06.070Z,102169.31
2023-03-26T22:19:34.789Z,102170.78
2023-03-26T22:22:03.247Z,102180.72
2023-03-26T22:24:31.484Z,102175.31
2023-03-26T22:26:59.919Z,102184.44
2023-03-26T22:29:30.793Z,102190.03
2023-03-26T22:31:58.709Z,102200.84
2023-03-26T22:34:28.133Z,102203.09
2023-03-26T22:36:56.358Z,102195.13
2023-03-26T22:39:24.500Z,102201.81
2023-03-26T22:41:52.713Z,102212.72
2023-03-26T22:44:20.816Z,102206.69
2023-03-26T22:46:51.717Z,102204.06
2023-03-26T22:49:20.018Z,102216.59
2023-03-26T22:51:50.497Z,102216.50
2023-03-26T22:54:18.491Z,102226.72
2023-03-26T22:56:47.009Z,102224.97
2023-03-26T22:59:17.276Z,102230.84
2023-03-26T23:01:45.998Z,102229.88
2023-03-26T23:04:31.540Z,102233.88
2023-03-26T23:07:01.867Z,102242.34
2023-03-26T23:09:29.785Z,102237.78
2023-03-26T23:11:57.666Z,102244.56
2023-03-26T23:14:25.866Z,102255.44
2023-03-26T23:16:53.760Z,102261.25
2023-03-26T23:19:21.885Z,102259.47
2023-03-26T23:21:49.827Z,102260.16
2023-03-26T23:24:19.277Z,102262.59
2023-03-26T23:26:51.136Z,102262.38
2023-03-26T23:29:19.632Z,102269.03
2023-03-26T23:31:48.383Z,102265.28
2023-03-26T23:34:17.288Z,102269.22
2023-03-26T23:36:45.681Z,102266.34
2023-03-26T23:39:13.712Z,102265.22
2023-03-26T23:41:43.939Z,102268.44
2023-03-26T23:44:13.724Z,102276.75
2023-03-26T23:46:42.869Z,102279.31
2023-03-26T23:49:12.247Z,102279.13
2023-03-26T23:51:40.564Z,102273.78
2023-03-26T23:54:08.953Z,102277.03
2023-03-26T23:56:37.016Z,102287.78
2023-03-26T23:59:10.387Z,102287.69
